Time;durP1;ratioP1;P1;durP2;ratioP2;P2;SDS_P1;SDS_P2;PMS_P1;PMS_P2;Temp;Humidity;BMP_temperature;BMP_pressure;BME280_temperature;BME280_humidity;BME280_pressure;Samples;Min_cycle;Max_cycle;Signal;HPM_P1;HPM_P2
2022/10/10 00:00:20;;;;;;;;;;;;;;;;;;5094620;28;19972;-80
2022/10/10 00:02:46;;;;;;;;;;;;;;;;;;5096004;28;20012;-80
2022/10/10 00:05:12;;;;;;;;;;;;;;;;;;5096985;28;20475;-81
2022/10/10 00:07:39;;;;;;;;;;;;;;;;;;5103377;28;19939;-81
2022/10/10 00:10:05;;;;;;;;;;;;;;;;;;5091612;28;19951;-81
2022/10/10 00:12:31;;;;;;;;;;;;;;;;;;5102507;28;19958;-82
2022/10/10 00:14:57;;;;;;;;;;;;;;;;;;5074471;28;20390;-81
2022/10/10 00:17:24;;;;;;;;;;;;;;;;;;5100121;28;19964;-80
2022/10/10 00:19:50;;;;;;;;;;;;;;;;;;5095981;28;20495;-80
2022/10/10 00:22:16;;;;;;;;;;;;;;;;;;5082505;28;19951;-81
2022/10/10 00:24:42;;;;;;;;;;;;;;;;;;5095994;28;19955;-81
2022/10/10 00:27:08;;;;;;;;;;;;;;;;;;5098133;28;20352;-81
2022/10/10 00:29:34;;;;;;;;;;;;;;;;;;5088592;28;19955;-81
2022/10/10 00:32:01;;;;;;;;;;;;;;;;;;5090296;28;19958;-81
2022/10/10 00:34:27;;;;;;;;;;;;;;;;;;5100074;28;19954;-80
2022/10/10 00:36:53;;;;;;;;;;;;;;;;;;5095845;28;19948;-80
2022/10/10 00:39:19;;;;;;;;;;;;;;;;;;5112554;27;19971;-80
2022/10/10 00:41:45;;;;;;;;;;;;;;;;;;5109481;27;19951;-81
2022/10/10 00:44:12;;;;;;;;;;;;;;;;;;5105286;27;20393;-82
2022/10/10 00:46:38;;;;;;;;;;;;;;;;;;5102311;28;19954;-81
2022/10/10 00:49:04;;;;;;;;;;;;;;;;;;5098779;28;19967;-81
2022/10/10 00:51:30;;;;;;;;;;;;;;;;;;5109489;28;20360;-81
2022/10/10 00:53:56;;;;;;;;;;;;;;;;;;5095114;28;19975;-80
2022/10/10 00:56:24;;;;;;;;;;;;;;;;;;5084383;28;19967;-82
2022/10/10 00:58:50;;;;;;;;;;;;;;;;;;5098611;28;20004;-81
2022/10/10 01:01:16;;;;;;;;;;;;;;;;;;5103511;28;19954;-81
2022/10/10 01:03:42;;;;;;;;;;;;;;;;;;5097231;28;19966;-81
2022/10/10 01:06:08;;;;;;;;;;;;;;;;;;5106756;28;19956;-82
2022/10/10 01:08:35;;;;;;;;;;;;;;;;;;5100934;28;19978;-82
2022/10/10 01:11:01;;;;;;;;;;;;;;;;;;5098566;28;19966;-81
2022/10/10 01:13:27;;;;;;;;;;;;;;;;;;5103118;28;20354;-81
2022/10/10 01:15:53;;;;;;;;;;;;;;;;;;5099408;28;19959;-82
2022/10/10 01:18:19;;;;;;;;;;;;;;;;;;5105232;28;19959;-82
2022/10/10 01:20:45;;;;;;;;;;;;;;;;;;5099556;28;19955;-82
2022/10/10 01:23:12;;;;;;;;;;;;;;;;;;5106727;28;19955;-83
2022/10/10 01:25:38;;;;;;;;;;;;;;;;;;5080351;28;20355;-83
2022/10/10 01:28:04;;;;;;;;;;;;;;;;;;5090690;28;19947;-83
2022/10/10 01:30:30;;;;;;;;;;;;;;;;;;5090760;28;19940;-83
2022/10/10 01:32:56;;;;;;;;;;;;;;;;;;5102829;28;19977;-82
2022/10/10 01:35:22;;;;;;;;;;;;;;;;;;5107378;28;19924;-81
2022/10/10 01:37:49;;;;;;;;;;;;;;;;;;5106034;28;19955;-81
2022/10/10 01:40:15;;;;;;;;;;;;;;;;;;5092146;28;20364;-81
2022/10/10 01:42:41;;;;;;;;;;;;;;;;;;5085956;28;19962;-81
2022/10/10 01:45:07;;;;;;;;;;;;;;;;;;5106333;28;19954;-82
2022/10/10 01:47:33;;;;;;;;;;;;;;;;;;5104787;28;19986;-81
2022/10/10 01:49:59;;;;;;;;;;;;;;;;;;5092530;28;19952;-81
2022/10/10 01:52:26;;;;;;;;;;;;;;;;;;5108224;28;19983;-80
2022/10/10 01:54:52;;;;;;;;;;;;;;;;;;5104725;28;19966;-81
2022/10/10 01:57:18;;;;;;;;;;;;;;;;;;5107716;28;20536;-81
2022/10/10 01:59:44;;;;;;;;;;;;;;;;;;5099138;28;19967;-81
2022/10/10 02:02:11;;;;;;;;;;;;;;;;;;5085093;28;19959;-81
2022/10/10 02:04:37;;;;;;;;;;;;;;;;;;5100398;28;20351;-81
2022/10/10 02:07:03;;;;;;;;;;;;;;;;;;5105363;28;19962;-82
2022/10/10 02:09:29;;;;;;;;;;;;;;;;;;5106860;28;19951;-82
2022/10/10 02:11:55;;;;;;;;;;;;;;;;;;5104954;28;19943;-81
2022/10/10 02:14:21;;;;;;;;;;;;;;;;;;5105411;28;20350;-81
2022/10/10 02:16:48;;;;;;;;;;;;;;;;;;5098185;28;20360;-81
2022/10/10 02:19:14;;;;;;;;;;;;;;;;;;5104163;28;19969;-81
2022/10/10 02:21:40;;;;;;;;;;;;;;;;;;5097540;28;20705;-81
2022/10/10 02:24:06;;;;;;;;;;;;;;;;;;5105729;28;19947;-81
2022/10/10 02:26:35;;;;;;;;;;;;;;;;;;5106334;28;19958;-82
2022/10/10 02:29:02;;;;;;;;;;;;;;;;;;5070766;28;19923;-82
2022/10/10 02:31:28;;;;;;;;;;;;;;;;;;5090579;28;19967;-82
2022/10/10 02:33:55;;;;;;;;;;;;;;;;;;5095415;28;19959;-82
2022/10/10 02:36:21;;;;;;;;;;;;;;;;;;5105818;28;19924;-81
2022/10/10 02:38:47;;;;;;;;;;;;;;;;;;5097352;28;19939;-82
2022/10/10 02:41:13;;;;;;;;;;;;;;;;;;5101065;28;19970;-81
2022/10/10 02:43:40;;;;;;;;;;;;;;;;;;5103967;28;19943;-81
2022/10/10 02:46:06;;;;;;;;;;;;;;;;;;5086327;28;19995;-82
2022/10/10 02:48:32;;;;;;;;;;;;;;;;;;5105526;28;19970;-81
2022/10/10 02:50:58;;;;;;;;;;;;;;;;;;5085537;28;20436;-81
2022/10/10 02:53:24;;;;;;;;;;;;;;;;;;5100956;28;19964;-82
2022/10/10 02:55:50;;;;;;;;;;;;;;;;;;5103358;28;19963;-82
2022/10/10 02:58:17;;;;;;;;;;;;;;;;;;5100573;28;19955;-81
2022/10/10 03:00:43;;;;;;;;;;;;;;;;;;5091199;28;19990;-82
2022/10/10 03:03:09;;;;;;;;;;;;;;;;;;5101421;28;19958;-82
2022/10/10 03:05:36;;;;;;;;;;;;;;;;;;5097964;28;19981;-81
2022/10/10 03:08:02;;;;;;;;;;;;;;;;;;5101040;28;19943;-80
2022/10/10 03:10:28;;;;;;;;;;;;;;;;;;5103648;28;20355;-80
2022/10/10 03:12:54;;;;;;;;;;;;;;;;;;5101001;28;19952;-80
2022/10/10 03:15:20;;;;;;;;;;;;;;;;;;5104411;28;20438;-81
2022/10/10 03:17:47;;;;;;;;;;;;;;;;;;5103200;28;19963;-81
2022/10/10 03:20:13;;;;;;;;;;;;;;;;;;5104171;28;19923;-80
2022/10/10 03:22:39;;;;;;;;;;;;;;;;;;5100693;28;19958;-80
2022/10/10 03:25:05;;;;;;;;;;;;;;;;;;5102829;28;19977;-80
2022/10/10 03:27:31;;;;;;;;;;;;;;;;;;5104383;28;19943;-81
2022/10/10 03:29:57;;;;;;;;;;;;;;;;;;5104592;28;20391;-80
2022/10/10 03:32:24;;;;;;;;;;;;;;;;;;5106756;28;19958;-80
2022/10/10 03:34:50;;;;;;;;;;;;;;;;;;5094322;28;19977;-80
2022/10/10 03:37:16;;;;;;;;;;;;;;;;;;5095488;28;19963;-81
2022/10/10 03:39:42;;;;;;;;;;;;;;;;;;5099115;28;19959;-81
2022/10/10 03:42:08;;;;;;;;;;;;;;;;;;5101410;28;19947;-81
2022/10/10 03:44:34;;;;;;;;;;;;;;;;;;5102079;28;19955;-80
2022/10/10 03:47:01;;;;;;;;;;;;;;;;;;5086378;28;19955;-81
2022/10/10 03:49:27;;;;;;;;;;;;;;;;;;5104549;28;20615;-81
2022/10/10 03:51:53;;;;;;;;;;;;;;;;;;5103101;28;19966;-81
2022/10/10 03:54:19;;;;;;;;;;;;;;;;;;5103206;28;19978;-80
2022/10/10 03:56:45;;;;;;;;;;;;;;;;;;5106156;28;19963;-81
2022/10/10 03:59:12;;;;;;;;;;;;;;;;;;5104544;28;20409;-82
2022/10/10 04:01:38;;;;;;;;;;;;;;;;;;5082851;28;19955;-81
2022/10/10 04:04:04;;;;;;;;;;;;;;;;;;5097407;28;19947;-82
2022/10/10 04:06:30;;;;;;;;;;;;;;;;;;5101385;28;19963;-80
2022/10/10 04:08:56;;;;;;;;;;;;;;;;;;5105941;28;19955;-80
2022/10/10 04:11:22;;;;;;;;;;;;;;;;;;5107768;28;19951;-81
2022/10/10 04:13:49;;;;;;;;;;;;;;;;;;5110799;28;19954;-78
2022/10/10 04:16:15;;;;;;;;;;;;;;;;;;5087342;28;20012;-80
2022/10/10 04:18:44;;;;;;;;;;;;;;;;;;5083245;28;19924;-80
2022/10/10 04:21:10;;;;;;;;;;;;;;;;;;5108267;28;19945;-80
2022/10/10 04:23:36;;;;;;;;;;;;;;;;;;5099565;28;19959;-78
2022/10/10 04:26:02;;;;;;;;;;;;;;;;;;5087740;28;19955;-78
2022/10/10 04:28:29;;;;;;;;;;;;;;;;;;5105606;28;19950;-78
2022/10/10 04:30:55;;;;;;;;;;;;;;;;;;5107431;28;20403;-78
2022/10/10 04:33:21;;;;;;;;;;;;;;;;;;5103031;28;19951;-78
2022/10/10 04:35:49;;;;;;;;;;;;;;;;;;5100386;28;20037;-78
2022/10/10 04:38:15;;;;;;;;;;;;;;;;;;5094626;28;20881;-78
2022/10/10 04:40:41;;;;;;;;;;;;;;;;;;5085185;28;19967;-78
2022/10/10 04:43:07;;;;;;;;;;;;;;;;;;5098480;28;19966;-78
2022/10/10 04:45:33;;;;;;;;;;;;;;;;;;5098331;28;19970;-79
2022/10/10 04:48:00;;;;;;;;;;;;;;;;;;5103738;28;20371;-79
2022/10/10 04:50:26;;;;;;;;;;;;;;;;;;5097657;28;19959;-79
2022/10/10 04:52:52;;;;;;;;;;;;;;;;;;5100861;28;19943;-79
2022/10/10 04:55:18;;;;;;;;;;;;;;;;;;5109317;28;19959;-80
2022/10/10 04:57:44;;;;;;;;;;;;;;;;;;5107802;28;20395;-81
2022/10/10 05:00:10;;;;;;;;;;;;;;;;;;5092027;28;19971;-81
2022/10/10 05:02:37;;;;;;;;;;;;;;;;;;5103996;28;19955;-80
2022/10/10 05:05:03;;;;;;;;;;;;;;;;;;5098988;28;20327;-81
2022/10/10 05:07:29;;;;;;;;;;;;;;;;;;5092885;28;19951;-80
2022/10/10 05:09:55;;;;;;;;;;;;;;;;;;5099471;28;19959;-80
2022/10/10 05:12:21;;;;;;;;;;;;;;;;;;5108656;28;20359;-80
2022/10/10 05:14:48;;;;;;;;;;;;;;;;;;5090988;28;19958;-80
2022/10/10 05:17:14;;;;;;;;;;;;;;;;;;5108071;28;19924;-82
2022/10/10 05:19:40;;;;;;;;;;;;;;;;;;5095750;28;19973;-80
2022/10/10 05:22:06;;;;;;;;;;;;;;;;;;5105914;28;19971;-81
2022/10/10 05:24:33;;;;;;;;;;;;;;;;;;5095666;28;19966;-82
2022/10/10 05:26:59;;;;;;;;;;;;;;;;;;5101957;28;19997;-82
2022/10/10 05:29:25;;;;;;;;;;;;;;;;;;5103687;28;20012;-82
2022/10/10 05:31:52;;;;;;;;;;;;;;;;;;5088898;28;19955;-81
2022/10/10 05:34:18;;;;;;;;;;;;;;;;;;5083777;28;20389;-82
2022/10/10 05:36:44;;;;;;;;;;;;;;;;;;5098788;28;19951;-81
2022/10/10 05:39:10;;;;;;;;;;;;;;;;;;5092911;28;21448;-81
2022/10/10 05:41:36;;;;;;;;;;;;;;;;;;5079092;28;20343;-81
2022/10/10 05:44:03;;;;;;;;;;;;;;;;;;5101441;28;19970;-81
2022/10/10 05:46:29;;;;;;;;;;;;;;;;;;5095342;28;19959;-81
2022/10/10 05:48:55;;;;;;;;;;;;;;;;;;5098331;28;19955;-81
2022/10/10 05:51:21;;;;;;;;;;;;;;;;;;5108069;28;19943;-81
2022/10/10 05:53:47;;;;;;;;;;;;;;;;;;5104236;28;19913;-79
2022/10/10 05:56:15;;;;;;;;;;;;;;;;;;5095877;28;19955;-80
2022/10/10 05:58:42;;;;;;;;;;;;;;;;;;5072632;28;20433;-80
2022/10/10 06:01:08;;;;;;;;;;;;;;;;;;5098625;28;19951;-81
2022/10/10 06:03:34;;;;;;;;;;;;;;;;;;5098117;28;19951;-77
2022/10/10 06:06:00;;;;;;;;;;;;;;;;;;5095066;28;19955;-80
2022/10/10 06:08:26;;;;;;;;;;;;;;;;;;5077073;28;19971;-81
2022/10/10 06:10:52;;;;;;;;;;;;;;;;;;5096293;28;19959;-81
2022/10/10 06:13:19;;;;;;;;;;;;;;;;;;5105439;28;19951;-82
2022/10/10 06:15:45;;;;;;;;;;;;;;;;;;5081537;28;19966;-81
2022/10/10 06:18:11;;;;;;;;;;;;;;;;;;5103599;27;19981;-81
2022/10/10 06:20:37;;;;;;;;;;;;;;;;;;5084658;28;19958;-81
2022/10/10 06:23:04;;;;;;;;;;;;;;;;;;5096273;28;20379;-81
2022/10/10 06:25:30;;;;;;;;;;;;;;;;;;5100222;28;19951;-82
2022/10/10 06:27:56;;;;;;;;;;;;;;;;;;5100865;28;19967;-81
2022/10/10 06:30:22;;;;;;;;;;;;;;;;;;5100814;28;19927;-81
2022/10/10 06:32:49;;;;;;;;;;;;;;;;;;5085180;28;19959;-82
2022/10/10 06:35:15;;;;;;;;;;;;;;;;;;5075970;28;19935;-82
2022/10/10 06:37:41;;;;;;;;;;;;;;;;;;5098380;28;19963;-82
2022/10/10 06:40:07;;;;;;;;;;;;;;;;;;5101666;28;20381;-82
2022/10/10 06:42:34;;;;;;;;;;;;;;;;;;5099774;28;19959;-82
2022/10/10 06:45:00;;;;;;;;;;;;;;;;;;5092427;28;19966;-81
2022/10/10 06:47:26;;;;;;;;;;;;;;;;;;5100066;28;19963;-82
2022/10/10 06:49:52;;;;;;;;;;;;;;;;;;5084040;28;19974;-81
2022/10/10 06:52:18;;;;;;;;;;;;;;;;;;5095689;28;19955;-83
2022/10/10 06:54:45;;;;;;;;;;;;;;;;;;5099681;28;19951;-83
2022/10/10 06:57:11;;;;;;;;;;;;;;;;;;5099386;28;19971;-79
2022/10/10 06:59:37;;;;;;;;;;;;;;;;;;5095432;28;19971;-79
2022/10/10 07:02:03;;;;;;;;;;;;;;;;;;5094095;28;19993;-78
2022/10/10 07:04:30;;;;;;;;;;;;;;;;;;5094069;28;20410;-78
2022/10/10 07:06:56;;;;;;;;;;;;;;;;;;5094721;28;20449;-81
2022/10/10 07:09:22;;;;;;;;;;;;;;;;;;5093469;28;19958;-76
2022/10/10 07:11:48;;;;;;;;;;;;;;;;;;5097563;28;19947;-77
2022/10/10 07:14:14;;;;;;;;;;;;;;;;;;5098664;28;19947;-76
2022/10/10 07:16:40;;;;;;;;;;;;;;;;;;5095018;28;20426;-75
2022/10/10 07:19:07;;;;;;;;;;;;;;;;;;5095291;28;19960;-76
2022/10/10 07:21:33;;;;;;;;;;;;;;;;;;5098864;28;19984;-77
2022/10/10 07:23:59;;;;;;;;;;;;;;;;;;5095043;28;19951;-78
2022/10/10 07:26:29;;;;;;;;;;;;;;;;;;5093742;28;19951;-78
2022/10/10 07:28:55;;;;;;;;;;;;;;;;;;5096925;28;20394;-77
2022/10/10 07:31:22;;;;;;;;;;;;;;;;;;5087038;28;19963;-78
2022/10/10 07:33:48;;;;;;;;;;;;;;;;;;5096461;28;20037;-77
2022/10/10 07:36:14;;;;;;;;;;;;;;;;;;5098447;28;20386;-77
2022/10/10 07:38:40;;;;;;;;;;;;;;;;;;5099375;28;19955;-82
2022/10/10 07:41:06;;;;;;;;;;;;;;;;;;5094328;28;19962;-78
2022/10/10 07:43:33;;;;;;;;;;;;;;;;;;5097003;28;19969;-79
2022/10/10 07:45:59;;;;;;;;;;;;;;;;;;5104984;28;19955;-79
2022/10/10 07:48:25;;;;;;;;;;;;;;;;;;5095382;28;19951;-79
2022/10/10 07:50:51;;;;;;;;;;;;;;;;;;5094726;28;20368;-79
2022/10/10 07:53:18;;;;;;;;;;;;;;;;;;5097124;28;19993;-79
2022/10/10 07:55:44;;;;;;;;;;;;;;;;;;5097517;28;19959;-79
2022/10/10 07:58:10;;;;;;;;;;;;;;;;;;5105837;28;19962;-78
2022/10/10 08:00:39;;;;;;;;;;;;;;;;;;5100929;28;19955;-79
2022/10/10 08:03:05;;;;;;;;;;;;;;;;;;5098059;28;20743;-79
2022/10/10 08:05:31;;;;;;;;;;;;;;;;;;5106024;28;19955;-78
2022/10/10 08:07:58;;;;;;;;;;;;;;;;;;5105651;28;19951;-78
2022/10/10 08:10:24;;;;;;;;;;;;;;;;;;5098817;28;19966;-78
2022/10/10 08:12:50;;;;;;;;;;;;;;;;;;5066549;28;19944;-78
2022/10/10 08:15:16;;;;;;;;;;;;;;;;;;5098688;28;21332;-79
2022/10/10 08:17:42;;;;;;;;;;;;;;;;;;5101878;28;19955;-81
2022/10/10 08:20:09;;;;;;;;;;;;;;;;;;5098895;28;20015;-80
2022/10/10 08:22:35;;;;;;;;;;;;;;;;;;5104595;28;19958;-79
2022/10/10 08:25:01;;;;;;;;;;;;;;;;;;5080042;28;20495;-79
2022/10/10 08:27:27;;;;;;;;;;;;;;;;;;5098899;28;19952;-79
2022/10/10 08:29:53;;;;;;;;;;;;;;;;;;5102508;28;19955;-78
2022/10/10 08:32:20;;;;;;;;;;;;;;;;;;5098282;28;19947;-80
2022/10/10 08:34:46;;;;;;;;;;;;;;;;;;5105710;28;19974;-80
2022/10/10 08:37:12;;;;;;;;;;;;;;;;;;5097721;28;20376;-80
2022/10/10 08:39:38;;;;;;;;;;;;;;;;;;5103790;28;19986;-79
2022/10/10 08:42:04;;;;;;;;;;;;;;;;;;5099984;28;20281;-79
2022/10/10 08:44:31;;;;;;;;;;;;;;;;;;5096154;28;20019;-79
2022/10/10 08:46:57;;;;;;;;;;;;;;;;;;5098201;28;20026;-79
2022/10/10 08:49:24;;;;;;;;;;;;;;;;;;5098076;28;19982;-79
2022/10/10 08:51:50;;;;;;;;;;;;;;;;;;5105971;28;20331;-79
2022/10/10 08:54:16;;;;;;;;;;;;;;;;;;5074990;28;20300;-79
2022/10/10 08:56:42;;;;;;;;;;;;;;;;;;5094696;28;20371;-79
2022/10/10 08:59:09;;;;;;;;;;;;;;;;;;5092913;28;19983;-79
2022/10/10 09:01:35;;;;;;;;;;;;;;;;;;5099662;28;20052;-79
2022/10/10 09:04:01;;;;;;;;;;;;;;;;;;5095687;28;19965;-79
2022/10/10 09:06:27;;;;;;;;;;;;;;;;;;5098094;28;19963;-79
2022/10/10 09:08:53;;;;;;;;;;;;;;;;;;5094712;28;19955;-78
2022/10/10 09:11:20;;;;;;;;;;;;;;;;;;5093431;28;20347;-79
2022/10/10 09:13:46;;;;;;;;;;;;;;;;;;5100578;28;19963;-82
2022/10/10 09:16:12;;;;;;;;;;;;;;;;;;5069626;28;19951;-81
2022/10/10 09:18:38;;;;;;;;;;;;;;;;;;5068214;28;19935;-81
2022/10/10 09:21:04;;;;;;;;;;;;;;;;;;5079699;28;19939;-82
2022/10/10 09:23:30;;;;;;;;;;;;;;;;;;5097316;28;19955;-82
2022/10/10 09:25:57;;;;;;;;;;;;;;;;;;5095128;28;19957;-81
2022/10/10 09:28:23;;;;;;;;;;;;;;;;;;5102836;28;19940;-82
2022/10/10 09:30:49;;;;;;;;;;;;;;;;;;5096019;28;19966;-82
2022/10/10 09:33:16;;;;;;;;;;;;;;;;;;5098515;28;19978;-82
2022/10/10 09:35:42;;;;;;;;;;;;;;;;;;5098722;28;19959;-82
2022/10/10 09:38:09;;;;;;;;;;;;;;;;;;5085350;28;19970;-81
2022/10/10 09:40:35;;;;;;;;;;;;;;;;;;5076314;28;20427;-81
2022/10/10 09:43:01;;;;;;;;;;;;;;;;;;5099398;28;19958;-77
2022/10/10 09:45:27;;;;;;;;;;;;;;;;;;5096957;28;20391;-78
2022/10/10 09:47:53;;;;;;;;;;;;;;;;;;5082199;28;19958;-77
2022/10/10 09:50:20;;;;;;;;;;;;;;;;;;5101020;28;19951;-78
2022/10/10 09:52:46;;;;;;;;;;;;;;;;;;5092415;28;19979;-77
2022/10/10 09:55:12;;;;;;;;;;;;;;;;;;5101145;28;20385;-78
2022/10/10 09:57:38;;;;;;;;;;;;;;;;;;5099654;28;19967;-78
2022/10/10 10:00:04;;;;;;;;;;;;;;;;;;5103694;28;20042;-77
2022/10/10 10:02:31;;;;;;;;;;;;;;;;;;5103607;28;19963;-77
2022/10/10 10:04:57;;;;;;;;;;;;;;;;;;5097704;28;19958;-78
2022/10/10 10:07:23;;;;;;;;;;;;;;;;;;5098808;28;19962;-78
2022/10/10 10:09:49;;;;;;;;;;;;;;;;;;5094787;28;19958;-78
2022/10/10 10:12:15;;;;;;;;;;;;;;;;;;5088745;28;19956;-78
2022/10/10 10:14:42;;;;;;;;;;;;;;;;;;5090965;28;19952;-78
2022/10/10 10:17:08;;;;;;;;;;;;;;;;;;5090388;27;19963;-78
2022/10/10 10:19:34;;;;;;;;;;;;;;;;;;5100336;28;19971;-76
2022/10/10 10:22:00;;;;;;;;;;;;;;;;;;5092799;28;20363;-78
2022/10/10 10:24:26;;;;;;;;;;;;;;;;;;5096611;28;19955;-78
2022/10/10 10:26:53;;;;;;;;;;;;;;;;;;5090422;28;19943;-78
2022/10/10 10:29:19;;;;;;;;;;;;;;;;;;5096533;27;19951;-79
2022/10/10 10:31:45;;;;;;;;;;;;;;;;;;5097316;28;20508;-81
2022/10/10 10:34:11;;;;;;;;;;;;;;;;;;5095715;28;21883;-81
2022/10/10 10:36:37;;;;;;;;;;;;;;;;;;5096789;28;20359;-80
2022/10/10 10:39:04;;;;;;;;;;;;;;;;;;5093477;28;20014;-79
2022/10/10 10:41:30;;;;;;;;;;;;;;;;;;5084533;28;20392;-82
2022/10/10 10:43:56;;;;;;;;;;;;;;;;;;5099022;28;19959;-81
2022/10/10 10:46:22;;;;;;;;;;;;;;;;;;5094914;28;20352;-78
2022/10/10 10:48:48;;;;;;;;;;;;;;;;;;5098049;28;20332;-80
2022/10/10 10:51:15;;;;;;;;;;;;;;;;;;5095729;28;19955;-79
2022/10/10 10:53:41;;;;;;;;;;;;;;;;;;5080011;28;19958;-80
2022/10/10 10:56:07;;;;;;;;;;;;;;;;;;5079867;28;20048;-80
2022/10/10 10:58:33;;;;;;;;;;;;;;;;;;5094611;28;19966;-80
2022/10/10 11:00:59;;;;;;;;;;;;;;;;;;5063843;28;19963;-81
2022/10/10 11:03:26;;;;;;;;;;;;;;;;;;5092029;28;19955;-80
2022/10/10 11:05:52;;;;;;;;;;;;;;;;;;5062531;28;19947;-80
2022/10/10 11:08:18;;;;;;;;;;;;;;;;;;5080003;28;19963;-80
2022/10/10 11:10:44;;;;;;;;;;;;;;;;;;5097206;28;19951;-81
2022/10/10 11:13:10;;;;;;;;;;;;;;;;;;5096622;28;19935;-81
2022/10/10 11:15:37;;;;;;;;;;;;;;;;;;5093139;28;19947;-82
2022/10/10 11:18:03;;;;;;;;;;;;;;;;;;5094103;28;19958;-80
2022/10/10 11:20:29;;;;;;;;;;;;;;;;;;5092755;28;19964;-78
2022/10/10 11:22:55;;;;;;;;;;;;;;;;;;5096160;28;20486;-81
2022/10/10 11:25:23;;;;;;;;;;;;;;;;;;5094523;28;20015;-81
2022/10/10 11:27:49;;;;;;;;;;;;;;;;;;5099087;28;20006;-84
2022/10/10 11:30:15;;;;;;;;;;;;;;;;;;5091133;28;19958;-85
2022/10/10 11:32:41;;;;;;;;;;;;;;;;;;5092843;28;19951;-85
2022/10/10 11:35:08;;;;;;;;;;;;;;;;;;5094715;28;19955;-84
2022/10/10 11:37:34;;;;;;;;;;;;;;;;;;5093870;28;20346;-80
2022/10/10 11:40:00;;;;;;;;;;;;;;;;;;5097096;28;19954;-80
2022/10/10 11:42:26;;;;;;;;;;;;;;;;;;5072984;28;19967;-80
2022/10/10 11:44:52;;;;;;;;;;;;;;;;;;5093905;28;19962;-79
2022/10/10 11:47:19;;;;;;;;;;;;;;;;;;5097245;28;20624;-80
2022/10/10 11:49:45;;;;;;;;;;;;;;;;;;5088001;28;19947;-79
2022/10/10 11:52:11;;;;;;;;;;;;;;;;;;5090621;28;19951;-80
2022/10/10 11:54:37;;;;;;;;;;;;;;;;;;5098313;28;19968;-79
2022/10/10 11:57:03;;;;;;;;;;;;;;;;;;5091272;28;20454;-82
2022/10/10 11:59:29;;;;;;;;;;;;;;;;;;5077490;28;20046;-84
2022/10/10 12:01:56;;;;;;;;;;;;;;;;;;5087686;28;19962;-87
2022/10/10 12:04:22;;;;;;;;;;;;;;;;;;5093839;28;20720;-83
2022/10/10 12:06:48;;;;;;;;;;;;;;;;;;5097054;28;19955;-84
2022/10/10 12:09:14;;;;;;;;;;;;;;;;;;5088186;28;20035;-83
2022/10/10 12:11:41;;;;;;;;;;;;;;;;;;5092499;28;20805;-84
2022/10/10 12:14:07;;;;;;;;;;;;;;;;;;5098557;28;20353;-82
2022/10/10 12:16:35;;;;;;;;;;;;;;;;;;5094758;28;19955;-82
2022/10/10 12:19:01;;;;;;;;;;;;;;;;;;5096291;28;19951;-82
2022/10/10 12:21:27;;;;;;;;;;;;;;;;;;5097586;28;19962;-83
2022/10/10 12:23:53;;;;;;;;;;;;;;;;;;5090202;28;19952;-84
2022/10/10 12:26:19;;;;;;;;;;;;;;;;;;5077461;28;19916;-84
2022/10/10 12:28:46;;;;;;;;;;;;;;;;;;5096117;28;19959;-86
2022/10/10 12:31:12;;;;;;;;;;;;;;;;;;5083808;28;20372;-87
2022/10/10 12:33:39;;;;;;;;;;;;;;;;;;5104773;28;19935;-85
2022/10/10 12:36:06;;;;;;;;;;;;;;;;;;5101725;28;19959;-85
2022/10/10 12:38:32;;;;;;;;;;;;;;;;;;5099040;28;19955;-83
2022/10/10 12:40:58;;;;;;;;;;;;;;;;;;5091111;28;19955;-82
2022/10/10 12:43:24;;;;;;;;;;;;;;;;;;5100979;27;19995;-84
2022/10/10 12:45:50;;;;;;;;;;;;;;;;;;5098443;28;19955;-84
2022/10/10 12:48:17;;;;;;;;;;;;;;;;;;5097883;28;19922;-84
2022/10/10 12:50:43;;;;;;;;;;;;;;;;;;5098189;28;19958;-86
2022/10/10 12:53:09;;;;;;;;;;;;;;;;;;5099654;28;19967;-85
2022/10/10 12:55:35;;;;;;;;;;;;;;;;;;5085022;28;19956;-85
2022/10/10 12:58:01;;;;;;;;;;;;;;;;;;5094916;28;20406;-85
2022/10/10 13:00:27;;;;;;;;;;;;;;;;;;5098322;28;19960;-85
2022/10/10 13:02:54;;;;;;;;;;;;;;;;;;5095545;28;19962;-85
2022/10/10 13:05:20;;;;;;;;;;;;;;;;;;5102100;28;19958;-86
2022/10/10 13:07:46;;;;;;;;;;;;;;;;;;5099714;28;20339;-83
2022/10/10 13:10:12;;;;;;;;;;;;;;;;;;5098444;28;20004;-83
2022/10/10 13:12:38;;;;;;;;;;;;;;;;;;5101364;28;19959;-84
2022/10/10 13:15:04;;;;;;;;;;;;;;;;;;5096986;28;19951;-83
2022/10/10 13:17:31;;;;;;;;;;;;;;;;;;5099371;28;19965;-84
2022/10/10 13:19:57;;;;;;;;;;;;;;;;;;5102346;28;19967;-85
2022/10/10 13:22:23;;;;;;;;;;;;;;;;;;5098267;28;19948;-84
2022/10/10 13:24:49;;;;;;;;;;;;;;;;;;5097578;28;19956;-85
2022/10/10 13:27:15;;;;;;;;;;;;;;;;;;5095632;28;19959;-83
2022/10/10 13:29:42;;;;;;;;;;;;;;;;;;5102561;28;19950;-84
2022/10/10 13:32:08;;;;;;;;;;;;;;;;;;5093286;28;19940;-84
2022/10/10 13:34:34;;;;;;;;;;;;;;;;;;5096930;28;20347;-84
2022/10/10 13:37:00;;;;;;;;;;;;;;;;;;5091942;28;19951;-84
2022/10/10 13:39:26;;;;;;;;;;;;;;;;;;5097176;28;19978;-83
2022/10/10 13:41:53;;;;;;;;;;;;;;;;;;5100868;28;19955;-83
2022/10/10 13:44:19;;;;;;;;;;;;;;;;;;5100163;28;20329;-84
2022/10/10 13:46:45;;;;;;;;;;;;;;;;;;5102351;28;19947;-83
2022/10/10 13:49:11;;;;;;;;;;;;;;;;;;5092569;28;19970;-83
2022/10/10 13:51:37;;;;;;;;;;;;;;;;;;5101634;28;19950;-84
2022/10/10 13:54:03;;;;;;;;;;;;;;;;;;5095518;28;19951;-85
2022/10/10 13:56:30;;;;;;;;;;;;;;;;;;5100485;28;20489;-86
2022/10/10 13:58:56;;;;;;;;;;;;;;;;;;5098481;28;19955;-84
2022/10/10 14:01:22;;;;;;;;;;;;;;;;;;5099101;28;20018;-83
2022/10/10 14:03:48;;;;;;;;;;;;;;;;;;5097750;28;19986;-83
2022/10/10 14:06:15;;;;;;;;;;;;;;;;;;5096822;28;19960;-82
2022/10/10 14:08:41;;;;;;;;;;;;;;;;;;5096974;28;20030;-84
2022/10/10 14:11:07;;;;;;;;;;;;;;;;;;5099209;28;19928;-86
2022/10/10 14:13:33;;;;;;;;;;;;;;;;;;5082466;28;20406;-84
2022/10/10 14:15:59;;;;;;;;;;;;;;;;;;5104556;28;19939;-86
2022/10/10 14:18:26;;;;;;;;;;;;;;;;;;5099665;28;19963;-83
2022/10/10 14:20:52;;;;;;;;;;;;;;;;;;5089921;28;19985;-81
2022/10/10 14:23:18;;;;;;;;;;;;;;;;;;5096234;28;22360;-80
2022/10/10 14:25:45;;;;;;;;;;;;;;;;;;5092976;28;19958;-79
2022/10/10 14:28:11;;;;;;;;;;;;;;;;;;5097311;28;19958;-80
2022/10/10 14:30:38;;;;;;;;;;;;;;;;;;5099814;28;20383;-80
2022/10/10 14:33:04;;;;;;;;;;;;;;;;;;5098468;28;19970;-79
2022/10/10 14:35:30;;;;;;;;;;;;;;;;;;5086118;28;19951;-80
2022/10/10 14:37:56;;;;;;;;;;;;;;;;;;5085202;28;19947;-79
2022/10/10 14:40:23;;;;;;;;;;;;;;;;;;5099253;28;19978;-79
2022/10/10 14:42:49;;;;;;;;;;;;;;;;;;5095631;28;19951;-79
2022/10/10 14:45:15;;;;;;;;;;;;;;;;;;5079009;28;19959;-79
2022/10/10 14:47:41;;;;;;;;;;;;;;;;;;5076842;28;20510;-84
2022/10/10 14:50:07;;;;;;;;;;;;;;;;;;5097909;28;19968;-85
2022/10/10 14:52:34;;;;;;;;;;;;;;;;;;5096596;28;19955;-78
2022/10/10 14:55:00;;;;;;;;;;;;;;;;;;5092084;28;19982;-79
2022/10/10 14:57:26;;;;;;;;;;;;;;;;;;5097281;28;19963;-79
2022/10/10 14:59:52;;;;;;;;;;;;;;;;;;5095351;28;19979;-78
2022/10/10 15:02:18;;;;;;;;;;;;;;;;;;5093931;28;20363;-78
2022/10/10 15:04:44;;;;;;;;;;;;;;;;;;5091623;28;19948;-78
2022/10/10 15:07:11;;;;;;;;;;;;;;;;;;5095563;28;19977;-79
2022/10/10 15:09:37;;;;;;;;;;;;;;;;;;5094008;28;19955;-79
2022/10/10 15:12:03;;;;;;;;;;;;;;;;;;5097995;28;20010;-79
2022/10/10 15:14:29;;;;;;;;;;;;;;;;;;5095648;28;20750;-78
2022/10/10 15:16:55;;;;;;;;;;;;;;;;;;5089916;28;19966;-78
2022/10/10 15:19:21;;;;;;;;;;;;;;;;;;5094206;28;19959;-87
2022/10/10 15:21:48;;;;;;;;;;;;;;;;;;5095616;28;19964;-84
2022/10/10 15:24:14;;;;;;;;;;;;;;;;;;5077112;28;19967;-80
2022/10/10 15:26:40;;;;;;;;;;;;;;;;;;5092015;28;19951;-79
2022/10/10 15:29:06;;;;;;;;;;;;;;;;;;5099072;28;20640;-79
2022/10/10 15:31:32;;;;;;;;;;;;;;;;;;5095162;28;19959;-79
2022/10/10 15:33:59;;;;;;;;;;;;;;;;;;5092561;28;19966;-79
2022/10/10 15:36:25;;;;;;;;;;;;;;;;;;5090817;28;20406;-79
2022/10/10 15:38:51;;;;;;;;;;;;;;;;;;5092157;28;20395;-80
2022/10/10 15:41:18;;;;;;;;;;;;;;;;;;5095195;28;19973;-79
2022/10/10 15:43:44;;;;;;;;;;;;;;;;;;5079068;28;19959;-78
2022/10/10 15:46:10;;;;;;;;;;;;;;;;;;5097678;28;19962;-82
2022/10/10 15:48:36;;;;;;;;;;;;;;;;;;5096225;28;19971;-76
2022/10/10 15:51:02;;;;;;;;;;;;;;;;;;5090952;28;19955;-77
2022/10/10 15:53:29;;;;;;;;;;;;;;;;;;5089168;28;19967;-77
2022/10/10 15:55:55;;;;;;;;;;;;;;;;;;5095515;28;19951;-82
2022/10/10 15:58:22;;;;;;;;;;;;;;;;;;5102850;28;20010;-77
2022/10/10 16:00:48;;;;;;;;;;;;;;;;;;5103639;28;19974;-75
2022/10/10 16:03:14;;;;;;;;;;;;;;;;;;5078961;28;20398;-76
2022/10/10 16:05:40;;;;;;;;;;;;;;;;;;5103373;28;20374;-76
2022/10/10 16:08:06;;;;;;;;;;;;;;;;;;5096745;28;19960;-75
2022/10/10 16:10:32;;;;;;;;;;;;;;;;;;5102546;28;19944;-75
2022/10/10 16:12:59;;;;;;;;;;;;;;;;;;5093618;28;19974;-76
2022/10/10 16:15:25;;;;;;;;;;;;;;;;;;5098384;27;19948;-76
2022/10/10 16:17:51;;;;;;;;;;;;;;;;;;5098793;28;19953;-75
2022/10/10 16:20:17;;;;;;;;;;;;;;;;;;5097497;28;19960;-80
2022/10/10 16:22:43;;;;;;;;;;;;;;;;;;5105254;28;19958;-81
2022/10/10 16:25:09;;;;;;;;;;;;;;;;;;5108519;28;20544;-80
2022/10/10 16:27:36;;;;;;;;;;;;;;;;;;5105700;28;19966;-81
2022/10/10 16:30:02;;;;;;;;;;;;;;;;;;5097152;28;19962;-82
2022/10/10 16:32:28;;;;;;;;;;;;;;;;;;5088135;28;20422;-81
2022/10/10 16:34:54;;;;;;;;;;;;;;;;;;5097646;28;19943;-80
2022/10/10 16:37:20;;;;;;;;;;;;;;;;;;5080751;28;20466;-81